EDT,Max TemperatureF,Mean TemperatureF,Min TemperatureF,Max Dew PointF,MeanDew PointF,Min DewpointF,Max Humidity, Mean Humidity, Min Humidity, Max Sea Level PressureIn, Mean Sea Level PressureIn, Min Sea Level PressureIn, Max VisibilityMiles, Mean VisibilityMiles, Min VisibilityMiles, Max Wind SpeedMPH, Mean Wind SpeedMPH, Max Gust SpeedMPH,PrecipitationIn, CloudCover, Events, WindDirDegrees
2012-3-1,78,64,51,63,54,36,94,66,22,29.86,29.80,29.73,10,10,10,17,9,28,0.00,2,,226
2012-3-2,55,46,37,55,46,36,100,95,81,30.01,29.91,29.79,10,6,0,6,1,,0.00,4,Fog-Rain,36
2012-3-3,64,58,51,63,56,45,100,91,63,29.76,29.68,29.60,10,9,0,13,4,23,0.00,6,Fog-Rain,229
2012-3-4,51,46,42,50,35,18,100,67,32,29.92,29.75,29.66,10,10,5,17,4,32,0.00,6,Rain,296
2012-3-5,53,40,28,30,25,14,100,55,27,30.46,30.10,29.93,10,10,10,28,6,38,0.00,3,,272
2012-3-6,53,38,23,32,24,19,93,64,26,30.68,30.62,30.51,10,10,10,7,2,,0.00,0,,93
2012-3-7,68,49,30,50,38,28,100,69,40,30.67,30.58,30.47,10,10,10,14,3,20,0.00,3,,177
2012-3-8,73,58,42,55,48,41,100,71,36,30.46,30.32,30.17,10,10,5,17,4,22,0.00,3,,187
2012-3-9,60,50,37,59,46,30,100,73,34,30.27,30.16,30.07,10,10,3,14,6,24,0.00,4,Rain,283
2012-3-10,55,42,30,32,28,23,100,59,29,30.53,30.45,30.31,10,10,7,12,3,18,0.00,0,,18
2012-3-11,62,45,28,34,28,19,100,62,19,30.60,30.52,30.44,10,10,7,9,1,,0.00,0,,132
2012-3-12,71,52,32,50,39,32,100,76,41,30.46,30.40,30.28,10,10,10,12,2,16,0.00,2,,205
2012-3-13,77,66,55,59,54,50,100,72,47,30.26,30.21,30.11,10,10,7,12,5,17,0.00,5,Rain,202
2012-3-14,80,64,48,61,51,45,100,71,28,30.24,30.18,30.14,10,8,0,6,1,,0.00,1,Fog,179
2012-3-15,82,64,46,55,50,45,100,73,26,30.28,30.23,30.18,10,10,7,10,1,17,0.00,0,,203
2012-3-16,80,66,51,59,54,48,100,75,34,30.22,30.19,30.11,10,10,3,7,1,,0.00,0,,237
2012-3-17,78,66,53,63,58,54,100,84,42,30.24,30.19,30.16,10,6,0,7,2,,0.00,3,Fog-Rain,50
2012-3-18,68,64,60,63,61,59,100,93,73,30.33,30.26,30.21,10,7,2,6,2,,0.00,8,Rain,47
2012-3-19,78,64,50,64,56,50,100,84,47,30.26,30.19,30.12,10,5,0,9,1,,0.00,5,Fog,146
2012-3-20,80,66,53,64,58,50,100,71,36,30.25,30.18,30.12,10,9,2,15,2,24,0.00,3,Rain,149
2012-3-21,68,64,59,64,62,59,100,96,78,30.32,30.26,30.21,10,7,0,8,2,,0.00,8,Fog-Rain,42
2012-3-22,78,64,51,66,58,52,100,81,44,30.28,30.23,30.14,10,6,0,9,1,,0.00,4,Fog,230
2012-3-23,82,68,53,68,58,54,100,82,39,30.16,30.10,29.98,10,6,0,10,2,17,0.00,4,Fog,230
2012-3-24,73,68,62,68,63,63,100,91,69,30.02,29.90,29.76,10,7,2,7,1,16,0.00,7,Rain,165
2012-3-25,68,62,55,59,57,54,100,88,60,29.81,29.73,29.70,10,8,0,13,4,18,0.00,7,Fog-Rain,1
2012-3-26,77,68,59,57,49,37,94,61,24,29.94,29.87,29.80,10,10,10,16,5,26,0.00,3,Rain,327
2012-3-27,60,51,42,32,23,16,57,34,19,30.36,30.27,30.10,10,10,10,12,6,17,0.00,0,,39
2012-3-28,78,58,37,55,46,36,100,69,42,30.28,30.10,29.87,10,10,10,20,5,25,0.00,1,,215
2012-3-29,82,70,59,54,45,32,82,46,16,29.91,29.87,29.84,10,10,10,15,7,25,0.00,0,,277
2012-3-30,78,62,46,61,49,45,93,65,41,30.04,29.96,29.86,10,10,10,8,2,,0.00,1,,48
2012-3-31,77,68,60,63,61,54,100,87,44,29.86,29.80,29.70,10,8,3,9,3,,0.00,6,Rain,237